createdAt,value
2023-05-12T04:31:33.076Z,52.6284
2023-05-12T04:32:35.159Z,52.4920
2023-05-12T04:33:37.153Z,52.0353
2023-05-12T04:34:39.186Z,52.2834
2023-05-12T04:35:41.258Z,54.3463
2023-05-12T04:36:43.287Z,53.2967
2023-05-12T04:37:45.327Z,53.4054
2023-05-12T04:38:47.402Z,52.5620
2023-05-12T04:39:49.423Z,51.5924
2023-05-12T04:40:51.469Z,50.9383
2023-05-12T04:41:53.516Z,49.6748
2023-05-12T04:42:55.575Z,49.0738
2023-05-12T04:44:00.395Z,48.8433
2023-05-12T04:44:59.642Z,48.5974
2023-05-12T04:46:01.751Z,48.2724
2023-05-12T04:47:03.741Z,48.0552
2023-05-12T04:48:05.829Z,47.8370
2023-05-12T04:49:07.860Z,47.7161
2023-05-12T04:50:09.881Z,47.4889
2023-05-12T04:51:11.938Z,47.2768
2023-05-12T04:52:13.975Z,47.1641
2023-05-12T04:53:16.026Z,47.0972
2023-05-12T04:54:18.086Z,46.8515
2023-05-12T04:55:20.361Z,46.6676
2023-05-12T04:56:22.194Z,46.5407
2023-05-12T04:57:24.223Z,46.5122
2023-05-12T04:58:26.294Z,46.4136
2023-05-12T04:59:28.343Z,46.4016
2023-05-12T05:00:30.369Z,46.3560
2023-05-12T05:01:32.533Z,46.2033
2023-05-12T05:02:34.603Z,46.0416
2023-05-12T05:03:36.611Z,45.9556
2023-05-12T05:04:38.596Z,45.9220
2023-05-12T05:05:40.621Z,45.8450
2023-05-12T05:06:42.694Z,45.7694
2023-05-12T05:07:44.719Z,45.8143
2023-05-12T05:08:46.759Z,45.8408
2023-05-12T05:09:48.810Z,45.6910
2023-05-12T05:10:50.923Z,45.6194
2023-05-12T05:11:52.937Z,45.6030
2023-05-12T05:12:54.998Z,45.6123
2023-05-12T05:13:56.994Z,45.6111
2023-05-12T05:14:59.036Z,45.6056
2023-05-12T05:16:01.141Z,45.5927
2023-05-12T05:17:03.134Z,45.5037
2023-05-12T05:18:05.212Z,45.4341
2023-05-12T05:19:19.211Z,45.3592
2023-05-12T05:20:11.631Z,45.2932
2023-05-12T05:21:11.561Z,45.2296
2023-05-12T05:22:13.406Z,45.1830
2023-05-12T05:23:15.451Z,45.1798
2023-05-12T05:24:17.518Z,45.2040
2023-05-12T05:25:19.696Z,45.1444
2023-05-12T05:26:21.592Z,45.1195
2023-05-12T05:27:23.662Z,45.1608
2023-05-12T05:28:25.671Z,45.2019
2023-05-12T05:29:27.722Z,45.1215
2023-05-12T05:30:29.796Z,45.0958
2023-05-12T05:31:31.909Z,45.1014
2023-05-12T05:32:33.875Z,45.1394
2023-05-12T05:33:35.913Z,45.0896
2023-05-12T05:34:38.041Z,45.0451
2023-05-12T05:35:40.031Z,44.9866
2023-05-12T05:36:42.098Z,45.0221
2023-05-12T05:37:44.136Z,45.0760
2023-05-12T05:38:46.183Z,45.0648
2023-05-12T05:39:48.237Z,45.0850
2023-05-12T05:40:53.466Z,45.1871
2023-05-12T05:41:52.337Z,45.2738
2023-05-12T05:42:54.447Z,45.3789
2023-05-12T05:43:56.413Z,45.3370
2023-05-12T05:44:58.468Z,45.3261
2023-05-12T05:46:00.531Z,45.2472
2023-05-12T05:47:02.601Z,45.2310
2023-05-12T05:48:04.683Z,45.4947
2023-05-12T05:49:06.646Z,45.5170
2023-05-12T05:50:08.741Z,45.6577
2023-05-12T05:51:10.815Z,45.9077
2023-05-12T05:52:12.830Z,45.6524
2023-05-12T05:53:15.193Z,45.7401
2023-05-12T05:54:16.906Z,45.9440
2023-05-12T05:55:19.345Z,45.8127
2023-05-12T05:56:21.030Z,45.8345
2023-05-12T05:57:23.074Z,45.8835
2023-05-12T05:58:25.105Z,46.1470
2023-05-12T05:59:27.162Z,46.0914
2023-05-12T06:00:29.228Z,46.4069
2023-05-12T06:01:31.266Z,46.4742
2023-05-12T06:02:33.619Z,46.4856
2023-05-12T06:03:35.430Z,46.7127
2023-05-12T06:04:37.415Z,46.6281
2023-05-12T06:05:39.495Z,46.6885
2023-05-12T06:06:41.601Z,47.0257
2023-05-12T06:07:43.562Z,47.2318
2023-05-12T06:08:45.580Z,47.1538
2023-05-12T06:09:47.754Z,47.6180
2023-05-12T06:10:49.708Z,47.7625
2023-05-12T06:11:51.727Z,47.4972
2023-05-12T06:12:53.802Z,47.7978
2023-05-12T06:13:55.857Z,48.0583
2023-05-12T06:14:58.057Z,47.9652
2023-05-12T06:15:59.952Z,48.2186
2023-05-12T06:17:02.037Z,47.9634
2023-05-12T06:18:04.132Z,48.1001
2023-05-12T06:19:06.132Z,48.1851
2023-05-12T06:20:08.134Z,48.4870
2023-05-12T06:21:10.323Z,48.7106
2023-05-12T06:22:12.251Z,48.2274
2023-05-12T06:23:14.290Z,48.4272
2023-05-12T06:24:16.336Z,48.4982
2023-05-12T06:25:18.579Z,48.3799
2023-05-12T06:26:20.413Z,48.2952
2023-05-12T06:27:22.538Z,48.1437
2023-05-12T06:28:24.540Z,48.1279
2023-05-12T06:29:26.617Z,47.9070
2023-05-12T06:30:28.656Z,48.4512
2023-05-12T06:31:30.716Z,48.4960
2023-05-12T06:32:32.803Z,49.0304
2023-05-12T06:33:34.893Z,49.2307
2023-05-12T06:34:36.831Z,48.8992
2023-05-12T06:35:38.921Z,48.8955
2023-05-12T06:36:40.904Z,49.3993
2023-05-12T06:37:42.937Z,49.1277
2023-05-12T06:38:45.224Z,48.8721
2023-05-12T06:39:47.047Z,49.2675
2023-05-12T06:40:49.130Z,49.0744
2023-05-12T06:41:51.144Z,49.0214
2023-05-12T06:42:53.211Z,48.4431
2023-05-12T06:43:55.383Z,48.2078
2023-05-12T06:44:57.303Z,47.9091
2023-05-12T06:45:59.353Z,48.4001
2023-05-12T06:47:01.363Z,48.0875
2023-05-12T06:48:03.497Z,48.0944
2023-05-12T06:49:05.578Z,47.9221
2023-05-12T06:50:07.523Z,48.0205
2023-05-12T06:51:09.571Z,48.1880
2023-05-12T06:52:11.605Z,47.9312
2023-05-12T06:53:13.694Z,47.4577
2023-05-12T06:54:15.693Z,47.7945
2023-05-12T06:55:17.915Z,48.1298
2023-05-12T06:56:19.797Z,48.0483
2023-05-12T06:57:21.813Z,47.9637
2023-05-12T06:58:23.933Z,48.0082
2023-05-12T06:59:25.921Z,47.8863
2023-05-12T07:00:27.967Z,47.7454
2023-05-12T07:01:30.106Z,47.7887
2023-05-12T07:02:32.170Z,47.8428
2023-05-12T07:03:34.118Z,48.0302
2023-05-12T07:04:36.153Z,48.2326
2023-05-12T07:05:38.250Z,48.1615
2023-05-12T07:06:40.270Z,48.0686
2023-05-12T07:07:42.262Z,47.9478
2023-05-12T07:08:44.338Z,48.1274
2023-05-12T07:09:46.371Z,48.2576
2023-05-12T07:10:48.441Z,48.4148
2023-05-12T07:11:50.453Z,48.3912
2023-05-12T07:12:52.478Z,48.2469
2023-05-12T07:13:54.566Z,48.2004
2023-05-12T07:14:56.602Z,48.2383
2023-05-12T07:15:58.669Z,48.2225
2023-05-12T07:17:00.688Z,47.8933
2023-05-12T07:18:02.764Z,47.9484
2023-05-12T07:19:04.850Z,47.9433
2023-05-12T07:20:06.812Z,47.7630
2023-05-12T07:21:08.874Z,47.7771
2023-05-12T07:22:10.903Z,47.4037
2023-05-12T07:23:12.986Z,47.5489
2023-05-12T07:24:15.050Z,47.6674
2023-05-12T07:25:17.119Z,47.3749
2023-05-12T07:26:19.117Z,47.1511
2023-05-12T07:27:21.145Z,47.3192
2023-05-12T07:28:23.203Z,47.1639
2023-05-12T07:29:25.234Z,47.2728
2023-05-12T07:30:27.282Z,47.3874
2023-05-12T07:31:29.377Z,47.1011
2023-05-12T07:32:31.401Z,47.2262
2023-05-12T07:33:33.430Z,47.4911
2023-05-12T07:34:35.482Z,47.2936
2023-05-12T07:35:37.525Z,47.3578
2023-05-12T07:36:39.654Z,47.6767
2023-05-12T07:37:41.624Z,47.4023
2023-05-12T07:38:43.670Z,47.6463
2023-05-12T07:39:45.744Z,47.7119
2023-05-12T07:40:47.765Z,47.2433
2023-05-12T07:41:49.812Z,47.0963
2023-05-12T07:42:51.874Z,46.9675
2023-05-12T07:43:53.882Z,47.4556
2023-05-12T07:44:55.905Z,47.2913
2023-05-12T07:45:57.971Z,47.0323
2023-05-12T07:47:00.081Z,47.1181
2023-05-12T07:48:02.130Z,47.6064
2023-05-12T07:49:04.110Z,47.7026
2023-05-12T07:50:06.151Z,47.4973
2023-05-12T07:51:08.196Z,47.7101
2023-05-12T07:52:10.330Z,47.7067
2023-05-12T07:53:12.293Z,47.6359
2023-05-12T07:54:14.351Z,47.7586
2023-05-12T07:55:16.386Z,47.7705
2023-05-12T07:56:18.430Z,47.5376
2023-05-12T07:57:20.467Z,47.5495
2023-05-12T07:58:22.535Z,47.4821
2023-05-12T07:59:24.584Z,47.2874
2023-05-12T08:00:26.618Z,47.0869
2023-05-12T08:01:28.671Z,47.1365
2023-05-12T08:02:30.835Z,47.1568
2023-05-12T08:03:32.829Z,47.4642
2023-05-12T08:04:34.877Z,47.5607
2023-05-12T08:05:36.953Z,47.4918
2023-05-12T08:06:38.895Z,47.1944
2023-05-12T08:07:41.201Z,47.1101
2023-05-12T08:08:43.051Z,47.2722
2023-05-12T08:09:45.020Z,47.6110
2023-05-12T08:10:47.084Z,47.5538
2023-05-12T08:11:50.828Z,47.5786
2023-05-12T08:12:51.180Z,47.4331
2023-05-12T08:13:53.199Z,47.5154
2023-05-12T08:14:55.266Z,47.4248
2023-05-12T08:15:57.289Z,47.2202
2023-05-12T08:16:59.530Z,46.7857
2023-05-12T08:18:01.571Z,46.8923
2023-05-12T08:19:03.476Z,46.8539
2023-05-12T08:20:05.526Z,46.7756
2023-05-12T08:21:07.535Z,46.8695
2023-05-12T08:22:09.568Z,46.6907
2023-05-12T08:23:11.633Z,46.5231
2023-05-12T08:24:13.749Z,46.5934
2023-05-12T08:25:15.717Z,47.1707
2023-05-12T08:26:17.761Z,47.6233
2023-05-12T08:27:19.845Z,48.2598
2023-05-12T08:28:21.873Z,48.4646
2023-05-12T08:29:23.929Z,48.1895
2023-05-12T08:30:25.977Z,47.7402
2023-05-12T08:31:28.079Z,47.6786
2023-05-12T08:32:30.107Z,47.3818
2023-05-12T08:33:32.116Z,47.4667
2023-05-12T08:34:34.232Z,48.0049
2023-05-12T08:35:36.273Z,48.3251
2023-05-12T08:36:38.317Z,48.3889
2023-05-12T08:37:40.384Z,48.4855
2023-05-12T08:38:42.452Z,48.5610
2023-05-12T08:39:44.564Z,48.3317
2023-05-12T08:40:46.616Z,48.1295
2023-05-12T08:41:48.582Z,48.0126
2023-05-12T08:42:50.619Z,47.4593
2023-05-12T08:43:52.701Z,47.1974
2023-05-12T08:44:54.799Z,47.2856
2023-05-12T08:45:56.815Z,47.3618
2023-05-12T08:46:58.856Z,47.2520
2023-05-12T08:48:00.938Z,47.4478
2023-05-12T08:49:02.928Z,47.6495
2023-05-12T08:50:05.002Z,47.7134
2023-05-12T08:51:06.995Z,47.9568
2023-05-12T08:52:09.068Z,48.2903
2023-05-12T08:53:11.139Z,48.0295
2023-05-12T08:54:13.190Z,48.0188
2023-05-12T08:55:15.405Z,47.7327
2023-05-12T08:57:19.317Z,47.7428
2023-05-12T08:58:27.797Z,48.2953
2023-05-12T08:59:23.417Z,48.1788
2023-05-12T09:00:25.513Z,48.2045
2023-05-12T09:01:27.487Z,48.2655
2023-05-12T09:02:37.570Z,48.1778
2023-05-12T09:03:31.603Z,48.0626
2023-05-12T09:04:33.688Z,48.1253
2023-05-12T09:05:35.665Z,48.0179
2023-05-12T09:06:37.738Z,48.0279
2023-05-12T09:07:39.780Z,47.7268
2023-05-12T09:08:41.847Z,47.7566
2023-05-12T09:09:43.867Z,47.5627
2023-05-12T09:10:45.963Z,48.0624
2023-05-12T09:11:47.951Z,47.9889
2023-05-12T09:12:50.018Z,47.8136
2023-05-12T09:13:52.061Z,48.0403
2023-05-12T09:14:54.089Z,48.3376
2023-05-12T09:15:56.196Z,47.9634
2023-05-12T09:16:58.201Z,47.9955
2023-05-12T09:18:00.292Z,47.9195
2023-05-12T09:19:03.146Z,48.2049
2023-05-12T09:20:04.338Z,48.3328
2023-05-12T09:21:06.432Z,48.2712
2023-05-12T09:22:08.455Z,48.4476
2023-05-12T09:23:10.512Z,48.2223
2023-05-12T09:24:12.524Z,48.1895
2023-05-12T09:25:14.922Z,47.9847
2023-05-12T09:26:16.654Z,48.2510
2023-05-12T09:27:18.677Z,48.1238
2023-05-12T09:28:20.730Z,48.1173
2023-05-12T09:29:31.319Z,47.9434
2023-05-12T09:30:24.810Z,48.0390
2023-05-12T09:31:26.921Z,48.0805
2023-05-12T09:32:28.964Z,47.8174
2023-05-12T09:33:30.996Z,47.6716
2023-05-12T09:34:33.029Z,47.6188
2023-05-12T09:35:35.078Z,47.4087
2023-05-12T09:36:37.130Z,47.4100
2023-05-12T09:37:39.311Z,47.3752
2023-05-12T09:38:41.235Z,47.6302
2023-05-12T09:39:43.259Z,47.2507
2023-05-12T09:40:45.419Z,47.1334
2023-05-12T09:41:47.365Z,46.8883
2023-05-12T09:42:49.426Z,46.9641
2023-05-12T09:43:51.480Z,47.0376
2023-05-12T09:44:53.518Z,46.7137
2023-05-12T09:45:55.633Z,46.7468
2023-05-12T09:46:57.598Z,46.8661
2023-05-12T09:47:59.727Z,46.7735
2023-05-12T09:49:01.711Z,46.8769
2023-05-12T09:50:03.747Z,46.7684
2023-05-12T09:51:06.053Z,46.7609
2023-05-12T09:52:07.830Z,46.5986
2023-05-12T09:53:09.953Z,46.8650
2023-05-12T09:54:11.924Z,46.9699
2023-05-12T09:55:14.005Z,46.6149
2023-05-12T09:56:16.040Z,46.0686
2023-05-12T09:57:18.087Z,45.9731
2023-05-12T09:58:20.098Z,45.9820
2023-05-12T09:59:22.176Z,46.5218
2023-05-12T10:01:26.332Z,45.7444
2023-05-12T10:02:28.427Z,46.0595
2023-05-12T10:03:30.413Z,46.2745
2023-05-12T10:04:32.508Z,46.2415
2023-05-12T10:05:34.434Z,46.4312
2023-05-12T10:06:36.491Z,46.2395
2023-05-12T10:07:38.554Z,45.9827
2023-05-12T10:08:40.602Z,46.2016
2023-05-12T10:09:42.660Z,46.4412
2023-05-12T10:10:44.655Z,46.7844
2023-05-12T10:11:46.711Z,46.7513
2023-05-12T10:12:48.784Z,46.4972
2023-05-12T10:13:50.810Z,46.8240
2023-05-12T10:14:52.896Z,46.7315
2023-05-12T10:15:54.928Z,46.9676
2023-05-12T10:16:57.028Z,46.6984
2023-05-12T10:17:59.022Z,46.5756
2023-05-12T10:19:01.083Z,46.7482
2023-05-12T10:20:03.140Z,46.8535
2023-05-12T10:21:05.187Z,46.9413
2023-05-12T10:22:07.211Z,47.0486
2023-05-12T10:23:09.345Z,45.9934
2023-05-12T10:24:11.284Z,45.8341
2023-05-12T10:25:13.348Z,45.2935
2023-05-12T10:26:15.401Z,44.5221
2023-05-12T10:27:17.466Z,44.7028
2023-05-12T10:28:19.482Z,44.7852
2023-05-12T10:29:21.544Z,44.1650
2023-05-12T10:30:23.614Z,43.9683
2023-05-12T10:31:25.673Z,44.5143
2023-05-12T10:32:27.691Z,44.4940
2023-05-12T10:33:29.717Z,44.1615
2023-05-12T10:34:31.850Z,44.0617
2023-05-12T10:35:33.862Z,44.2792
2023-05-12T10:36:35.862Z,43.8718
2023-05-12T10:37:38.599Z,44.2978
2023-05-12T10:38:39.988Z,44.8228
2023-05-12T10:39:42.083Z,45.0876
2023-05-12T10:40:44.059Z,45.0440
2023-05-12T10:41:46.209Z,44.9190
2023-05-12T10:42:48.186Z,44.6978
2023-05-12T10:43:50.251Z,44.4347
2023-05-12T10:44:52.308Z,44.8513
2023-05-12T10:45:54.509Z,44.8889
2023-05-12T10:46:56.367Z,45.1117
2023-05-12T10:47:58.466Z,45.0209
2023-05-12T10:49:00.490Z,44.7859
2023-05-12T10:50:02.579Z,44.6625
2023-05-12T10:51:04.594Z,44.3931
2023-05-12T10:52:06.656Z,45.0965
2023-05-12T10:53:09.965Z,45.0525
2023-05-12T10:54:10.747Z,45.5138
2023-05-12T10:55:12.816Z,45.6889
2023-05-12T10:56:15.034Z,45.5263
2023-05-12T10:57:18.908Z,45.7019
2023-05-12T10:58:19.313Z,45.6401
2023-05-12T10:59:21.405Z,45.2965
2023-05-12T11:00:23.808Z,45.0940
2023-05-12T11:01:25.305Z,44.8000
2023-05-12T11:02:27.917Z,44.7255
2023-05-12T11:03:30.374Z,44.8192
2023-05-12T11:04:31.359Z,44.5670
2023-05-12T11:05:33.529Z,44.4450
2023-05-12T11:06:36.337Z,44.2867
2023-05-12T11:07:37.800Z,44.2804
2023-05-12T11:08:40.186Z,44.0122
2023-05-12T11:09:52.400Z,44.0016
2023-05-12T11:10:43.575Z,43.7313
2023-05-12T11:11:45.864Z,43.6143
2023-05-12T11:12:47.625Z,43.5291
2023-05-12T11:13:49.708Z,43.2637
2023-05-12T11:14:51.740Z,42.8215
2023-05-12T11:15:53.835Z,43.0044
2023-05-12T11:16:55.912Z,43.1180
2023-05-12T11:17:57.930Z,43.2119
2023-05-12T11:19:00.029Z,43.3731
2023-05-12T11:20:02.156Z,43.7044
2023-05-12T11:21:04.066Z,43.8807
2023-05-12T11:22:06.068Z,44.2077
2023-05-12T11:23:08.133Z,44.3405
2023-05-12T11:24:13.161Z,44.7909
2023-05-12T11:25:12.915Z,45.0133
2023-05-12T11:26:14.290Z,45.1546
2023-05-12T11:27:16.323Z,44.9824
2023-05-12T11:28:18.384Z,44.7936
2023-05-12T11:29:20.425Z,44.5102
2023-05-12T11:30:22.482Z,44.5022
2023-05-12T11:31:24.583Z,44.6017
2023-05-12T11:32:26.732Z,44.5264
2023-05-12T11:33:28.763Z,44.0641
2023-05-12T11:34:30.706Z,44.0620
2023-05-12T11:35:32.796Z,44.4000
2023-05-12T11:36:34.760Z,44.6146
2023-05-12T11:37:36.890Z,44.9916
2023-05-12T11:38:38.865Z,45.1769
2023-05-12T11:39:40.923Z,45.2179
2023-05-12T11:40:42.944Z,45.0315
2023-05-12T11:41:45.002Z,45.1365
2023-05-12T11:42:47.206Z,44.9108
2023-05-12T11:43:49.118Z,44.9742
2023-05-12T11:44:51.155Z,44.8419
2023-05-12T11:45:53.251Z,44.6626
2023-05-12T11:46:55.256Z,44.8376
2023-05-12T11:47:59.272Z,44.4344
2023-05-12T11:48:59.427Z,44.3868
2023-05-12T11:50:01.379Z,44.0960
2023-05-12T11:51:03.456Z,44.3272
2023-05-12T11:52:05.491Z,44.5303
2023-05-12T11:53:07.517Z,44.5535
2023-05-12T11:54:09.610Z,44.6797
2023-05-12T11:55:11.658Z,44.6617
2023-05-12T11:56:13.692Z,44.3420
2023-05-12T11:57:15.746Z,43.8226
2023-05-12T11:58:17.794Z,43.6869
2023-05-12T11:59:19.901Z,43.6939
2023-05-12T12:00:21.884Z,44.0827
2023-05-12T12:01:23.939Z,43.3542
2023-05-12T12:02:26.020Z,43.5985
2023-05-12T12:03:28.139Z,43.2668
2023-05-12T12:04:30.187Z,43.7812
2023-05-12T12:05:32.111Z,43.5750
2023-05-12T12:06:34.169Z,43.2680
2023-05-12T12:07:36.224Z,42.5649
2023-05-12T12:08:38.354Z,42.3411
2023-05-12T12:09:40.295Z,42.5426
2023-05-12T12:10:42.376Z,42.7756
2023-05-12T12:11:44.401Z,42.6249
2023-05-12T12:12:46.421Z,42.6918
2023-05-12T12:13:48.470Z,42.8723
2023-05-12T12:14:50.606Z,43.0097
2023-05-12T12:15:52.621Z,42.9122
2023-05-12T12:16:54.632Z,42.9484
2023-05-12T12:17:56.784Z,42.9077
2023-05-12T12:18:58.731Z,42.5125
2023-05-12T12:20:00.770Z,43.3262
2023-05-12T12:21:02.870Z,43.0287
2023-05-12T12:22:04.849Z,42.8876
2023-05-12T12:23:06.903Z,42.9530
2023-05-12T12:24:08.960Z,42.7976
2023-05-12T12:25:10.992Z,42.2491
2023-05-12T12:26:13.156Z,42.1236
2023-05-12T12:27:15.094Z,41.9980
2023-05-12T12:28:17.125Z,41.7817
2023-05-12T12:29:19.147Z,41.8659
2023-05-12T12:30:21.193Z,41.7584
2023-05-12T12:31:23.288Z,41.6576
2023-05-12T12:32:25.323Z,41.6587
2023-05-12T12:33:27.504Z,41.3703
2023-05-12T12:34:29.396Z,41.5621
2023-05-12T12:35:31.460Z,41.4028
2023-05-12T12:36:33.468Z,41.6288
2023-05-12T12:37:35.532Z,41.8122
2023-05-12T12:38:37.576Z,41.5956
2023-05-12T12:39:39.730Z,41.3237
2023-05-12T12:40:41.785Z,41.4346
2023-05-12T12:41:43.789Z,41.3987
2023-05-12T12:42:45.823Z,40.7255
2023-05-12T12:43:47.871Z,41.0005
2023-05-12T12:44:49.930Z,41.1221
2023-05-12T12:45:52.100Z,41.2008
2023-05-12T12:46:54.026Z,41.0202
2023-05-12T12:47:56.087Z,41.1084
2023-05-12T12:48:58.091Z,41.4263
2023-05-12T12:50:00.216Z,41.4927
2023-05-12T12:51:02.209Z,41.6770
2023-05-12T12:52:04.257Z,41.7161
2023-05-12T12:53:06.429Z,41.9354
2023-05-12T12:54:08.352Z,42.0915
2023-05-12T12:55:10.400Z,42.0675
2023-05-12T12:56:12.434Z,42.1759
2023-05-12T12:57:14.522Z,42.0573
2023-05-12T12:58:16.519Z,41.8641
2023-05-12T12:59:18.605Z,42.0662
2023-05-12T13:00:20.629Z,42.8336
2023-05-12T13:01:22.762Z,42.9559
2023-05-12T13:02:24.979Z,43.1070
2023-05-12T13:03:26.797Z,42.8153
2023-05-12T13:04:28.912Z,42.5702
2023-05-12T13:05:30.886Z,42.0606
2023-05-12T13:06:32.920Z,42.0893
2023-05-12T13:07:34.990Z,42.3886
2023-05-12T13:08:37.025Z,42.0691
2023-05-12T13:09:39.134Z,41.8916
2023-05-12T13:10:41.152Z,41.9440
2023-05-12T13:11:43.181Z,41.9941
2023-05-12T13:12:45.215Z,41.8229
2023-05-12T13:13:47.297Z,42.0278
2023-05-12T13:14:49.323Z,42.0297
2023-05-12T13:15:51.357Z,41.5057
2023-05-12T13:16:53.463Z,41.1413
2023-05-12T13:17:55.517Z,41.5065
2023-05-12T13:18:57.598Z,41.4209
2023-05-12T13:19:59.568Z,41.0187
2023-05-12T13:21:01.637Z,40.9749
2023-05-12T13:22:03.679Z,41.0074
2023-05-12T13:23:05.718Z,40.7504
2023-05-12T13:24:07.767Z,40.5865
2023-05-12T13:25:09.790Z,40.7196
2023-05-12T13:26:11.869Z,40.7537
2023-05-12T13:27:13.888Z,40.6255
2023-05-12T13:28:15.986Z,40.7495
2023-05-12T13:29:18.004Z,41.2426
2023-05-12T13:30:20.045Z,41.4620
2023-05-12T13:31:22.131Z,41.3475
2023-05-12T13:32:24.183Z,41.4873
2023-05-12T13:33:26.192Z,42.0110
2023-05-12T13:34:28.250Z,41.9371
2023-05-12T13:35:30.311Z,41.7737
2023-05-12T13:36:32.340Z,41.6261
2023-05-12T13:37:34.382Z,41.4677
2023-05-12T13:38:36.481Z,41.3928
2023-05-12T13:39:38.507Z,41.6819
2023-05-12T13:40:40.541Z,41.6116
2023-05-12T13:41:42.570Z,41.6682
2023-05-12T13:42:44.645Z,41.3516
2023-05-12T13:43:46.666Z,41.1368
2023-05-12T13:44:48.738Z,41.3264
2023-05-12T13:45:50.788Z,41.0521
2023-05-12T13:46:52.843Z,41.0099
2023-05-12T13:47:54.958Z,40.8473
2023-05-12T13:48:56.962Z,40.0708
2023-05-12T13:49:59.044Z,39.9461
2023-05-12T13:51:01.005Z,39.4652
2023-05-12T13:52:03.069Z,39.7739
2023-05-12T13:53:05.095Z,40.1698
2023-05-12T13:54:07.154Z,40.2170
2023-05-12T13:55:09.237Z,40.4034
2023-05-12T13:56:11.265Z,40.5609
2023-05-12T13:57:13.327Z,40.1970
2023-05-12T13:58:15.380Z,39.6834
2023-05-12T13:59:17.410Z,39.5110
2023-05-12T14:00:19.471Z,39.8661
2023-05-12T14:01:21.555Z,40.3073
2023-05-12T14:02:23.598Z,39.8908
2023-05-12T14:03:25.581Z,39.8067
2023-05-12T14:04:27.656Z,39.8656
2023-05-12T14:05:29.730Z,40.1549
2023-05-12T14:06:31.719Z,39.8955
2023-05-12T14:07:33.765Z,39.6995
2023-05-12T14:08:35.849Z,39.8458
2023-05-12T14:09:37.880Z,40.2281
2023-05-12T14:10:39.926Z,40.2842
2023-05-12T14:11:41.990Z,40.5051
2023-05-12T14:12:44.036Z,40.5089
2023-05-12T14:13:46.072Z,40.3721
2023-05-12T14:14:48.142Z,40.5966
2023-05-12T14:15:50.466Z,40.5423
2023-05-12T14:16:52.361Z,40.8315
2023-05-12T14:17:54.359Z,40.4815
2023-05-12T14:18:56.397Z,40.7490
2023-05-12T14:19:58.370Z,41.0456
2023-05-12T14:21:00.457Z,41.3293
2023-05-12T14:22:05.860Z,42.0514
2023-05-12T14:23:04.545Z,41.9610
2023-05-12T14:24:06.592Z,42.0015
2023-05-12T14:25:08.665Z,42.2178
2023-05-12T14:26:10.675Z,42.5201
2023-05-12T14:27:12.747Z,41.5402
2023-05-12T14:28:14.860Z,41.5615
2023-05-12T14:29:16.886Z,41.6913
2023-05-12T14:30:19.038Z,41.6720
2023-05-12T14:31:20.954Z,41.7143
2023-05-12T14:32:23.004Z,41.6503
2023-05-12T14:33:25.038Z,41.3109
2023-05-12T14:34:27.103Z,41.4194
2023-05-12T14:35:29.163Z,41.5677
2023-05-12T14:36:31.203Z,41.7556
2023-05-12T14:37:33.228Z,41.7442
2023-05-12T14:38:35.302Z,41.8611
2023-05-12T14:39:37.334Z,42.1263
2023-05-12T14:40:40.336Z,42.4115
2023-05-12T14:41:41.460Z,42.6229
2023-05-12T14:42:43.577Z,42.8883
2023-05-12T14:43:45.529Z,43.2018
2023-05-12T14:44:47.598Z,43.5820
2023-05-12T14:45:49.702Z,43.8618
2023-05-12T14:46:51.696Z,43.9165
2023-05-12T14:47:53.798Z,44.0529
2023-05-12T14:48:55.827Z,44.2540
2023-05-12T14:49:57.815Z,44.0382
2023-05-12T14:50:59.901Z,44.0125
2023-05-12T14:52:01.947Z,43.8506
2023-05-12T14:53:04.087Z,43.8190
2023-05-12T14:54:12.594Z,43.8315
2023-05-12T14:55:09.077Z,43.9960
2023-05-12T14:56:10.177Z,44.0567
2023-05-12T14:57:12.206Z,44.4225
2023-05-12T14:58:14.311Z,44.3028
2023-05-12T14:59:16.282Z,44.3992
2023-05-12T15:00:18.329Z,44.4714
2023-05-12T15:01:20.403Z,44.3292
2023-05-12T15:02:22.457Z,44.5438
2023-05-12T15:03:24.688Z,44.5585
2023-05-12T15:04:26.557Z,44.3984
2023-05-12T15:05:41.335Z,44.3417
2023-05-12T15:06:30.653Z,44.4181
2023-05-12T15:07:32.659Z,43.7732
2023-05-12T15:08:34.790Z,43.3356
2023-05-12T15:09:36.778Z,43.0036
2023-05-12T15:10:38.807Z,42.7655
2023-05-12T15:11:40.866Z,42.8509
2023-05-12T15:12:42.914Z,42.7980
2023-05-12T15:13:44.946Z,42.6970
2023-05-12T15:14:47.015Z,42.6236
2023-05-12T15:15:51.836Z,42.7599
2023-05-12T15:16:51.136Z,42.8720
2023-05-12T15:17:53.214Z,43.2652
2023-05-12T15:18:55.254Z,43.2543
2023-05-12T15:19:57.339Z,43.5410
2023-05-12T15:20:59.306Z,43.9632
2023-05-12T15:22:01.352Z,43.6183
2023-05-12T15:23:03.390Z,43.8003
2023-05-12T15:24:05.466Z,44.0603
2023-05-12T15:25:07.507Z,43.8898
2023-05-12T15:26:26.950Z,44.4654
2023-05-12T15:27:11.591Z,44.1145
2023-05-12T15:28:13.672Z,44.2063
2023-05-12T15:29:15.697Z,44.3198
2023-05-12T15:30:17.751Z,44.2539
2023-05-12T15:31:20.385Z,43.9360
2023-05-12T15:32:21.850Z,44.2793
2023-05-12T15:33:23.883Z,44.1625
2023-05-12T15:34:25.945Z,44.0831
2023-05-12T15:35:27.969Z,44.2489
2023-05-12T15:36:30.016Z,44.1982
2023-05-12T15:37:32.289Z,44.3656
2023-05-12T15:38:34.125Z,44.3989
2023-05-12T15:39:36.153Z,44.4535
2023-05-12T15:40:38.305Z,44.4890
2023-05-12T15:41:40.305Z,44.3324
2023-05-12T15:42:42.331Z,44.4876
2023-05-12T15:43:44.342Z,44.2938
2023-05-12T15:44:46.615Z,44.2465
2023-05-12T15:45:48.547Z,44.2381
2023-05-12T15:46:50.643Z,44.1620
2023-05-12T15:47:52.593Z,44.1863
2023-05-12T15:48:54.588Z,44.2229
2023-05-12T15:49:56.649Z,44.4330
2023-05-12T15:50:58.702Z,44.7066
2023-05-12T15:52:00.740Z,44.8852
2023-05-12T15:53:02.766Z,45.0721
2023-05-12T15:54:05.587Z,45.2633
2023-05-12T15:55:07.039Z,45.4238
2023-05-12T15:56:08.980Z,45.8693
2023-05-12T15:57:11.029Z,45.7198
2023-05-12T15:58:13.041Z,45.8261
2023-05-12T15:59:15.121Z,45.9152
2023-05-12T16:00:17.205Z,46.4493
2023-05-12T16:01:19.232Z,46.4944
2023-05-12T16:02:21.231Z,46.6864
2023-05-12T16:03:23.515Z,46.4128
2023-05-12T16:04:25.341Z,46.2315
2023-05-12T16:05:27.367Z,46.0304
2023-05-12T16:06:29.401Z,46.4395
2023-05-12T16:07:31.498Z,46.3853
2023-05-12T16:08:33.531Z,46.2913
2023-05-12T16:09:35.549Z,46.1305
2023-05-12T16:10:37.725Z,46.1903
2023-05-12T16:11:39.834Z,46.4890
2023-05-12T16:12:41.910Z,46.8566
2023-05-12T16:13:43.793Z,47.0344
2023-05-12T16:14:45.797Z,46.5769
2023-05-12T16:15:47.842Z,46.3176
2023-05-12T16:16:49.917Z,46.0984
2023-05-12T16:17:51.973Z,46.3454
2023-05-12T16:18:53.989Z,46.1076
2023-05-12T16:19:56.099Z,45.8356
2023-05-12T16:20:58.146Z,45.6172
2023-05-12T16:22:00.371Z,45.3664
2023-05-12T16:23:02.172Z,45.7633
2023-05-12T16:24:04.214Z,45.6249
2023-05-12T16:25:06.258Z,45.3526
2023-05-12T16:26:08.338Z,45.3977
2023-05-12T16:27:10.398Z,45.5462
2023-05-12T16:28:12.430Z,45.4745
2023-05-12T16:29:14.467Z,45.5490
2023-05-12T16:30:18.496Z,45.3721
2023-05-12T16:31:18.814Z,45.4099
2023-05-12T16:32:20.729Z,45.0553
2023-05-12T16:33:22.653Z,45.0000
2023-05-12T16:34:24.729Z,45.4505
2023-05-12T16:35:26.832Z,46.1414
2023-05-12T16:36:28.889Z,46.0638
2023-05-12T16:37:30.886Z,45.5332
2023-05-12T16:38:33.090Z,45.5844
2023-05-12T16:39:34.968Z,45.5933
2023-05-12T16:40:37.041Z,45.6918
2023-05-12T16:41:39.088Z,45.8773
2023-05-12T16:42:41.116Z,45.4436
2023-05-12T16:43:43.260Z,45.2037
2023-05-12T16:44:45.294Z,44.9866
2023-05-12T16:45:47.398Z,44.8723
2023-05-12T16:46:49.549Z,45.1369
2023-05-12T16:47:51.543Z,45.0024
2023-05-12T16:48:53.519Z,44.9769
2023-05-12T16:49:55.567Z,45.1174
2023-05-12T16:50:57.619Z,44.9640
2023-05-12T16:51:59.650Z,45.0724
2023-05-12T16:53:01.716Z,45.2340
2023-05-12T16:54:03.798Z,45.2603
2023-05-12T16:55:05.816Z,45.2172
2023-05-12T16:56:07.865Z,45.4146
2023-05-12T16:57:09.914Z,45.7331
2023-05-12T16:58:11.932Z,45.4226
2023-05-12T16:59:14.011Z,45.4344
2023-05-12T17:00:16.095Z,45.7580
2023-05-12T17:01:18.192Z,45.7569
2023-05-12T17:02:20.164Z,45.4387
2023-05-12T17:03:22.248Z,45.4795